Rosebud, South Dakota
Current Conditions -  °F | °C
As of 9:52 AM on Tuesday 27 Jan 2015 (Local Time) from KVTN Reporting Station
Clear Clear  
Wind Chill: 54°   Ceiling: Unl
Heat Index: 54°   Visibility: 10mi
Dew Point: 32°   Wind: 10mph
Humidity: 43%   Direction: 270°W
Pressure: 29.98"   Gusts: NA
Location:  43.23°N, 100.86°W
Report Text: KVTN 271652Z AUTO 27009KT 10SM CLR 12/00 A2998 RMK AO2 SLP162 T01220000
Loading
Personal Weather Stations






























Interactive Weather Map New forecast layout! Learn more

10-Day Weather Forecast

Advertisements
Track Severe Weather on mobile